createdAt,value
2022-11-05T00:00:53.365Z,96.34
2022-11-05T00:01:53.423Z,96.45
2022-11-05T00:02:53.355Z,96.03
2022-11-05T00:03:53.380Z,95.31
2022-11-05T00:04:53.345Z,96.24
2022-11-05T00:05:53.317Z,96.86
2022-11-05T00:06:53.315Z,97.68
2022-11-05T00:07:53.297Z,97.27
2022-11-05T00:08:53.315Z,97.89
2022-11-05T00:09:53.276Z,96.24
2022-11-05T00:10:53.278Z,95.62
2022-11-05T00:11:53.269Z,96.75
2022-11-05T00:12:53.246Z,96.14
2022-11-05T00:13:53.244Z,96.55
2022-11-05T00:14:53.228Z,95.93
2022-11-05T00:15:53.223Z,94.59
2022-11-05T00:16:53.237Z,95.42
2022-11-05T00:17:53.187Z,94.80
2022-11-05T00:18:53.188Z,95.42
2022-11-05T00:19:53.170Z,94.49
2022-11-05T00:20:53.168Z,93.66
2022-11-05T00:21:53.153Z,93.35
2022-11-05T00:22:53.140Z,93.15
2022-11-05T00:23:53.127Z,92.08
2022-11-05T00:24:53.120Z,92.29
2022-11-05T00:25:53.233Z,93.11
2022-11-05T00:26:53.109Z,92.29
2022-11-05T00:27:53.072Z,92.59
2022-11-05T00:28:53.072Z,92.90
2022-11-05T00:29:53.065Z,92.49
2022-11-05T00:30:53.885Z,93.62
2022-11-05T00:31:53.052Z,94.13
2022-11-05T00:32:53.036Z,94.65
2022-11-05T00:33:53.025Z,94.03
2022-11-05T00:34:53.012Z,93.05
2022-11-05T00:35:53.001Z,93.35
2022-11-05T00:36:53.019Z,94.38
2022-11-05T00:37:52.992Z,95.42
2022-11-05T00:38:52.973Z,93.15
2022-11-05T00:39:52.960Z,92.02
2022-11-05T00:40:52.943Z,92.08
2022-11-05T00:41:52.932Z,91.15
2022-11-05T00:42:52.925Z,91.15
2022-11-05T00:43:52.923Z,91.46
2022-11-05T00:44:52.905Z,91.46
2022-11-05T00:45:52.893Z,91.91
2022-11-05T00:46:58.748Z,92.33
2022-11-05T00:47:53.866Z,92.53
2022-11-05T00:48:52.877Z,93.35
2022-11-05T00:49:52.866Z,93.77
2022-11-05T00:50:52.846Z,93.46
2022-11-05T00:51:52.827Z,92.84
2022-11-05T00:52:52.826Z,92.74
2022-11-05T00:53:52.868Z,93.87
2022-11-05T00:54:53.208Z,93.87
2022-11-05T00:55:52.905Z,94.28
2022-11-05T00:56:52.786Z,94.38
2022-11-05T00:57:52.772Z,93.46
2022-11-05T00:58:52.758Z,94.38
2022-11-05T00:59:52.746Z,95.21
2022-11-05T01:00:52.727Z,94.49
2022-11-05T01:01:52.800Z,94.28
2022-11-05T01:02:52.848Z,93.56
2022-11-05T01:03:53.242Z,93.98
2022-11-05T01:04:52.701Z,93.66
2022-11-05T01:05:52.680Z,93.87
2022-11-05T01:06:52.675Z,93.66
2022-11-05T01:07:52.698Z,94.08
2022-11-05T01:08:52.661Z,93.77
2022-11-05T01:09:52.638Z,93.56
2022-11-05T01:10:52.639Z,93.15
2022-11-05T01:11:52.612Z,93.66
2022-11-05T01:12:52.609Z,93.25
2022-11-05T01:13:52.711Z,93.77
2022-11-05T01:14:52.591Z,94.70
2022-11-05T01:15:52.581Z,95.52
2022-11-05T01:16:52.580Z,96.14
2022-11-05T01:17:52.554Z,94.38
2022-11-05T01:18:52.553Z,94.18
2022-11-05T01:19:52.543Z,92.02
2022-11-05T01:20:52.532Z,91.91
2022-11-05T01:21:52.522Z,92.43
2022-11-05T01:22:52.503Z,92.33
2022-11-05T01:23:52.491Z,92.12
2022-11-05T01:24:52.483Z,91.05
2022-11-05T01:25:52.491Z,91.05
2022-11-05T01:26:52.473Z,90.73
2022-11-05T01:27:52.454Z,90.73
2022-11-05T01:28:52.525Z,91.77
2022-11-05T01:29:52.429Z,91.97
2022-11-05T01:30:52.444Z,90.64
2022-11-05T01:31:52.425Z,90.64
2022-11-05T01:32:52.413Z,91.15
2022-11-05T01:33:52.394Z,90.73
2022-11-05T01:34:52.386Z,91.15
2022-11-05T01:35:52.364Z,91.97
2022-11-05T01:36:52.357Z,91.15
2022-11-05T01:37:52.347Z,91.66
2022-11-05T01:38:52.347Z,91.87
2022-11-05T01:39:52.329Z,91.66
2022-11-05T01:40:52.318Z,91.87
2022-11-05T01:41:52.297Z,91.97
2022-11-05T01:42:52.289Z,91.87
2022-11-05T01:43:52.286Z,92.90
2022-11-05T01:44:52.281Z,92.38
2022-11-05T01:45:52.288Z,93.41
2022-11-05T01:46:52.276Z,93.41
2022-11-05T01:47:52.236Z,93.05
2022-11-05T01:48:52.230Z,93.77
2022-11-05T01:49:52.218Z,93.25
2022-11-05T01:50:52.220Z,93.15
2022-11-05T01:51:52.239Z,93.46
2022-11-05T01:52:52.193Z,94.28
2022-11-05T01:53:52.171Z,94.90
2022-11-05T01:54:52.171Z,95.31
2022-11-05T01:55:52.158Z,95.62
2022-11-05T01:56:52.199Z,96.45
2022-11-05T01:57:52.132Z,96.96
2022-11-05T01:58:52.139Z,97.38
2022-11-05T01:59:52.120Z,97.48
2022-11-05T02:00:52.105Z,97.52
2022-11-05T02:01:52.247Z,97.31
2022-11-05T02:02:52.231Z,97.83
2022-11-05T02:03:52.068Z,95.87
2022-11-05T02:04:52.065Z,95.46
2022-11-05T02:05:52.044Z,94.32
2022-11-05T02:06:52.044Z,95.36
2022-11-05T02:07:52.026Z,96.08
2022-11-05T02:08:52.034Z,96.08
2022-11-05T02:09:52.015Z,95.25
2022-11-05T02:10:52.013Z,96.08
2022-11-05T02:11:51.990Z,95.67
2022-11-05T02:12:51.975Z,96.91
2022-11-05T02:13:51.973Z,97.73
2022-11-05T02:14:52.052Z,98.03
2022-11-05T02:15:51.950Z,98.24
2022-11-05T02:16:51.936Z,98.66
2022-11-05T02:17:51.929Z,99.07
2022-11-05T02:18:51.908Z,98.39
2022-11-05T02:19:51.913Z,99.11
2022-11-05T02:20:52.403Z,98.91
2022-11-05T02:21:51.887Z,99.22
2022-11-05T02:22:51.867Z,99.43
2022-11-05T02:23:51.867Z,99.43
2022-11-05T02:24:51.839Z,99.11
2022-11-05T02:25:51.838Z,99.63
2022-11-05T02:26:51.838Z,99.43
2022-11-05T02:27:51.829Z,99.01
2022-11-05T02:28:51.799Z,99.11
2022-11-05T02:29:51.855Z,99.11
2022-11-05T02:30:51.788Z,98.91
2022-11-05T02:31:51.777Z,98.29
2022-11-05T02:32:52.581Z,99.01
2022-11-05T02:33:51.769Z,98.80
2022-11-05T02:34:51.764Z,98.50
2022-11-05T02:35:51.732Z,98.70
2022-11-05T02:36:51.720Z,98.60
2022-11-05T02:37:51.723Z,98.91
2022-11-05T02:38:51.700Z,99.11
2022-11-05T02:39:51.701Z,99.52
2022-11-05T02:40:51.692Z,99.32
2022-11-05T02:41:51.671Z,99.01
2022-11-05T02:42:51.660Z,99.52
2022-11-05T02:43:51.693Z,99.32
2022-11-05T02:44:51.640Z,99.22
2022-11-05T02:45:51.645Z,99.11
2022-11-05T02:46:51.632Z,99.32
2022-11-05T02:47:51.612Z,99.22
2022-11-05T02:48:51.603Z,99.43
2022-11-05T02:49:51.592Z,99.84
2022-11-05T02:50:51.803Z,99.99
2022-11-05T02:51:52.114Z,99.63
2022-11-05T02:52:51.552Z,99.63
2022-11-05T02:53:51.544Z,99.43
2022-11-05T02:54:51.534Z,99.52
2022-11-05T02:55:51.594Z,99.43
2022-11-05T02:56:51.506Z,98.91
2022-11-05T02:57:51.604Z,97.77
2022-11-05T02:58:51.486Z,98.50
2022-11-05T02:59:52.287Z,98.80
2022-11-05T03:00:51.466Z,98.80
2022-11-05T03:01:51.709Z,99.63
2022-11-05T03:02:51.594Z,99.73
2022-11-05T03:03:51.457Z,99.32
2022-11-05T03:04:51.431Z,99.63
2022-11-05T03:05:51.429Z,99.43
2022-11-05T03:06:51.417Z,98.70
2022-11-05T03:07:51.405Z,97.77
2022-11-05T03:08:51.387Z,97.98
2022-11-05T03:09:51.390Z,98.50
2022-11-05T03:10:51.362Z,98.80
2022-11-05T03:11:51.456Z,99.01
2022-11-05T03:12:51.369Z,98.70
2022-11-05T03:13:51.338Z,98.08
2022-11-05T03:14:51.332Z,98.60
2022-11-05T03:15:51.318Z,99.11
2022-11-05T03:16:51.303Z,99.43
2022-11-05T03:17:51.302Z,99.43
2022-11-05T03:18:51.290Z,99.63
2022-11-05T03:19:51.270Z,99.32
2022-11-05T03:20:51.259Z,99.84
2022-11-05T03:21:51.251Z,99.99
2022-11-05T03:22:52.051Z,99.94
2022-11-05T03:23:51.351Z,99.22
2022-11-05T03:24:51.210Z,99.11
2022-11-05T03:25:51.219Z,99.01
2022-11-05T03:26:51.192Z,99.22
2022-11-05T03:27:51.192Z,99.63
2022-11-05T03:28:51.171Z,99.99
2022-11-05T03:29:51.180Z,99.99
2022-11-05T03:30:51.160Z,99.99
2022-11-05T03:31:51.153Z,99.99
2022-11-05T03:32:51.134Z,99.99
2022-11-05T03:33:51.125Z,99.99
2022-11-05T03:34:51.177Z,99.99
2022-11-05T03:35:51.124Z,99.84
2022-11-05T03:36:51.103Z,99.84
2022-11-05T03:37:51.105Z,99.32
2022-11-05T03:38:51.064Z,99.22
2022-11-05T03:39:51.064Z,99.52
2022-11-05T03:40:51.057Z,99.01
2022-11-05T03:41:51.069Z,99.73
2022-11-05T03:42:51.024Z,99.52
2022-11-05T03:43:51.034Z,99.73
2022-11-05T03:44:51.006Z,99.73
2022-11-05T03:45:51.005Z,99.99
2022-11-05T03:46:50.986Z,99.99
2022-11-05T03:47:50.984Z,99.94
2022-11-05T03:48:51.134Z,99.32
2022-11-05T03:49:50.967Z,99.32
2022-11-05T03:50:50.948Z,99.94
2022-11-05T03:51:50.949Z,99.99
2022-11-05T03:52:50.958Z,99.99
2022-11-05T03:53:50.927Z,99.99
2022-11-05T03:54:50.909Z,99.99
2022-11-05T03:55:50.907Z,99.99
2022-11-05T03:56:50.890Z,99.94
2022-11-05T03:57:50.868Z,99.99
2022-11-05T03:58:56.068Z,99.99
2022-11-05T03:59:51.868Z,99.99
2022-11-05T04:00:50.969Z,99.99
2022-11-05T04:01:50.960Z,99.99
2022-11-05T04:02:51.001Z,99.99
2022-11-05T04:03:50.820Z,99.99
2022-11-05T04:04:50.791Z,99.99
2022-11-05T04:05:50.789Z,99.94
2022-11-05T04:06:50.776Z,99.84
2022-11-05T04:07:50.779Z,99.84
2022-11-05T04:08:50.761Z,99.99
2022-11-05T04:09:50.752Z,99.99
2022-11-05T04:10:50.731Z,99.99
2022-11-05T04:11:50.732Z,99.99
2022-11-05T04:12:51.223Z,99.99
2022-11-05T04:13:50.711Z,99.99
2022-11-05T04:14:50.691Z,99.99
2022-11-05T04:15:50.729Z,99.99
2022-11-05T04:16:50.675Z,99.99
2022-11-05T04:17:51.123Z,99.99
2022-11-05T04:18:50.678Z,99.94
2022-11-05T04:19:50.653Z,99.94
2022-11-05T04:20:50.631Z,99.99
2022-11-05T04:21:50.651Z,99.99
2022-11-05T04:22:50.605Z,99.94
2022-11-05T04:23:50.660Z,99.22
2022-11-05T04:24:50.585Z,98.60
2022-11-05T04:25:50.594Z,98.08
2022-11-05T04:26:50.563Z,98.39
2022-11-05T04:27:50.562Z,99.01
2022-11-05T04:28:50.545Z,98.19
2022-11-05T04:29:50.548Z,97.88
2022-11-05T04:30:50.540Z,98.08
2022-11-05T04:31:50.542Z,98.03
2022-11-05T04:32:50.497Z,96.91
2022-11-05T04:33:50.498Z,97.73
2022-11-05T04:34:50.477Z,97.31
2022-11-05T04:35:50.469Z,97.31
2022-11-05T04:36:50.469Z,96.91
2022-11-05T04:37:50.461Z,97.11
2022-11-05T04:38:50.451Z,96.70
2022-11-05T04:39:50.435Z,96.18
2022-11-05T04:40:50.407Z,96.59
2022-11-05T04:41:50.418Z,96.49
2022-11-05T04:42:50.390Z,96.80
2022-11-05T04:43:50.393Z,97.31
2022-11-05T04:44:50.388Z,97.94
2022-11-05T04:45:50.367Z,98.03
2022-11-05T04:46:50.360Z,98.45
2022-11-05T04:47:50.353Z,98.55
2022-11-05T04:48:50.330Z,98.66
2022-11-05T04:49:50.330Z,98.97
2022-11-05T04:50:50.313Z,98.66
2022-11-05T04:51:50.307Z,98.35
2022-11-05T04:52:50.301Z,98.66
2022-11-05T04:53:50.652Z,98.76
2022-11-05T04:54:50.271Z,99.11
2022-11-05T04:55:50.281Z,99.43
2022-11-05T04:56:50.263Z,98.50
2022-11-05T04:57:50.241Z,98.91
2022-11-05T04:58:50.261Z,99.32
2022-11-05T04:59:50.222Z,99.73
2022-11-05T05:00:50.273Z,99.94
2022-11-05T05:01:50.270Z,98.35
2022-11-05T05:02:50.239Z,97.52
2022-11-05T05:03:50.183Z,98.14
2022-11-05T05:04:50.160Z,98.97
2022-11-05T05:05:53.652Z,99.38
2022-11-05T05:06:50.154Z,99.90
2022-11-05T05:07:50.149Z,99.79
2022-11-05T05:08:50.124Z,98.76
2022-11-05T05:09:50.121Z,98.86
2022-11-05T05:10:50.114Z,97.52
2022-11-05T05:11:50.102Z,98.24
2022-11-05T05:12:50.085Z,98.86
2022-11-05T05:13:50.079Z,98.86
2022-11-05T05:14:50.065Z,98.76
2022-11-05T05:15:50.059Z,98.70
2022-11-05T05:16:50.048Z,99.17
2022-11-05T05:17:50.037Z,99.84
2022-11-05T05:18:50.016Z,99.58
2022-11-05T05:19:50.009Z,99.32
2022-11-05T05:20:50.007Z,99.22
2022-11-05T05:21:49.990Z,99.73
2022-11-05T05:22:49.976Z,99.52
2022-11-05T05:23:49.968Z,99.11
2022-11-05T05:24:52.743Z,99.52
2022-11-05T05:25:50.077Z,99.99
2022-11-05T05:26:49.938Z,99.01
2022-11-05T05:27:49.922Z,99.22
2022-11-05T05:28:49.919Z,99.32
2022-11-05T05:29:49.900Z,99.84
2022-11-05T05:30:52.608Z,99.99
2022-11-05T05:31:50.899Z,99.52
2022-11-05T05:32:49.861Z,99.22
2022-11-05T05:33:50.217Z,99.22
2022-11-05T05:34:49.849Z,99.01
2022-11-05T05:35:49.849Z,99.32
2022-11-05T05:36:49.830Z,99.73
2022-11-05T05:37:49.830Z,99.63
2022-11-05T05:38:49.816Z,99.99
2022-11-05T05:39:49.806Z,99.99
2022-11-05T05:40:49.782Z,99.99
2022-11-05T05:41:49.782Z,99.99
2022-11-05T05:42:49.768Z,99.99
2022-11-05T05:43:49.772Z,99.99
2022-11-05T05:44:49.752Z,99.99
2022-11-05T05:45:49.733Z,99.99
2022-11-05T05:46:49.721Z,99.99
2022-11-05T05:47:49.724Z,99.99
2022-11-05T05:48:49.704Z,99.99
2022-11-05T05:49:49.693Z,99.99
2022-11-05T05:50:49.673Z,99.99
2022-11-05T05:51:49.679Z,99.99
2022-11-05T05:52:49.654Z,99.99
2022-11-05T05:53:49.652Z,99.99
2022-11-05T05:54:49.635Z,99.99
2022-11-05T05:55:49.625Z,99.99
2022-11-05T05:56:49.636Z,99.99
2022-11-05T05:57:49.619Z,99.99
2022-11-05T05:58:49.597Z,99.99
2022-11-05T05:59:49.585Z,99.99
2022-11-05T06:00:49.580Z,99.99
2022-11-05T06:01:49.724Z,99.99
2022-11-05T06:02:49.621Z,99.99
2022-11-05T06:03:49.537Z,99.99
2022-11-05T06:04:49.528Z,99.99
2022-11-05T06:05:49.526Z,99.99
2022-11-05T06:06:49.507Z,99.99
2022-11-05T06:07:49.517Z,99.99
2022-11-05T06:08:49.490Z,99.99
2022-11-05T06:09:49.479Z,99.99
2022-11-05T06:10:49.509Z,99.99
2022-11-05T06:11:49.459Z,99.99
2022-11-05T06:12:49.449Z,99.99
2022-11-05T06:13:49.459Z,99.99
2022-11-05T06:14:49.421Z,99.99
2022-11-05T06:15:49.428Z,99.99
2022-11-05T06:16:49.409Z,99.99
2022-11-05T06:17:49.400Z,99.99
2022-11-05T06:18:49.413Z,99.99
2022-11-05T06:19:49.381Z,99.99
2022-11-05T06:20:49.368Z,99.99
2022-11-05T06:21:49.365Z,99.99
2022-11-05T06:22:49.364Z,99.99
2022-11-05T06:23:49.368Z,99.99
2022-11-05T06:24:49.412Z,99.99
2022-11-05T06:25:49.312Z,99.99
2022-11-05T06:26:49.303Z,99.99
2022-11-05T06:27:49.283Z,99.99
2022-11-05T06:28:49.333Z,99.99
2022-11-05T06:29:49.280Z,99.99
2022-11-05T06:30:49.271Z,99.99
2022-11-05T06:31:49.258Z,99.99
2022-11-05T06:32:49.242Z,99.99
2022-11-05T06:33:50.038Z,99.99
2022-11-05T06:34:49.220Z,99.99
2022-11-05T06:35:49.212Z,99.99
2022-11-05T06:36:49.214Z,99.99
2022-11-05T06:37:49.192Z,99.99
2022-11-05T06:38:49.184Z,99.99
2022-11-05T06:39:49.164Z,99.99
2022-11-05T06:40:49.160Z,99.99
2022-11-05T06:42:17.769Z,99.99
2022-11-05T06:42:50.144Z,99.99
2022-11-05T06:43:49.144Z,99.99
2022-11-05T06:44:49.114Z,99.99
2022-11-05T06:45:49.134Z,99.99
2022-11-05T06:46:49.719Z,99.99
2022-11-05T06:47:49.084Z,99.99
2022-11-05T06:48:49.074Z,99.99
2022-11-05T06:49:49.065Z,99.99
2022-11-05T06:50:49.054Z,99.99
2022-11-05T06:51:49.037Z,99.99
2022-11-05T06:52:49.034Z,99.99
2022-11-05T06:53:49.029Z,99.99
2022-11-05T06:54:49.016Z,99.99
2022-11-05T06:55:48.996Z,99.99
2022-11-05T06:56:48.987Z,99.69
2022-11-05T06:57:48.974Z,99.58
2022-11-05T06:58:48.967Z,99.99
2022-11-05T06:59:48.968Z,99.99
2022-11-05T07:00:49.479Z,99.99
2022-11-05T07:01:49.038Z,98.97
2022-11-05T07:02:48.933Z,98.55
2022-11-05T07:03:48.907Z,98.97
2022-11-05T07:04:48.901Z,99.27
2022-11-05T07:05:48.942Z,99.79
2022-11-05T07:06:48.954Z,99.90
2022-11-05T07:07:48.914Z,99.58
2022-11-05T07:08:48.991Z,99.58
2022-11-05T07:09:48.868Z,99.90
2022-11-05T07:10:48.890Z,99.99
2022-11-05T07:11:48.849Z,99.99
2022-11-05T07:12:48.855Z,99.99
2022-11-05T07:13:48.836Z,99.99
2022-11-05T07:14:48.857Z,99.99
2022-11-05T07:15:48.808Z,99.99
2022-11-05T07:16:48.832Z,99.99
2022-11-05T07:17:48.818Z,99.99
2022-11-05T07:18:48.776Z,99.90
2022-11-05T07:19:48.744Z,99.99
2022-11-05T07:20:48.769Z,99.58
2022-11-05T07:21:48.753Z,99.43
2022-11-05T07:22:48.759Z,99.95
2022-11-05T07:23:49.493Z,99.95
2022-11-05T07:24:48.726Z,99.99
2022-11-05T07:25:48.725Z,99.64
2022-11-05T07:26:48.690Z,97.38
2022-11-05T07:27:49.476Z,96.14
2022-11-05T07:28:48.913Z,96.09
2022-11-05T07:29:48.675Z,97.13
2022-11-05T07:30:48.688Z,96.71
2022-11-05T07:31:48.716Z,95.68
2022-11-05T07:32:48.647Z,95.99
2022-11-05T07:33:48.650Z,96.30
2022-11-05T07:34:48.636Z,96.50
2022-11-05T07:35:48.576Z,96.81
2022-11-05T07:36:48.637Z,97.02
2022-11-05T07:37:48.572Z,96.41
2022-11-05T07:38:48.549Z,97.43
2022-11-05T07:39:48.669Z,97.43
2022-11-05T07:40:48.597Z,97.43
2022-11-05T07:41:48.554Z,97.99
2022-11-05T07:42:49.225Z,98.41
2022-11-05T07:43:48.509Z,98.50
2022-11-05T07:44:49.304Z,99.02
2022-11-05T07:45:48.504Z,99.02
2022-11-05T07:46:48.507Z,99.64
2022-11-05T07:47:48.530Z,99.99
2022-11-05T07:48:48.515Z,99.99
2022-11-05T07:49:49.238Z,99.99
2022-11-05T07:50:48.450Z,99.99
2022-11-05T07:51:48.422Z,99.99
2022-11-05T07:52:48.456Z,99.99
2022-11-05T07:53:48.398Z,99.99
2022-11-05T07:54:48.423Z,99.99
2022-11-05T07:55:48.403Z,99.99
2022-11-05T07:56:48.426Z,99.99
2022-11-05T07:57:48.384Z,99.99
2022-11-05T07:58:48.338Z,99.99
2022-11-05T07:59:48.346Z,99.99
2022-11-05T08:00:48.485Z,99.99
2022-11-05T08:01:48.519Z,99.99
2022-11-05T08:02:48.652Z,99.99
2022-11-05T08:03:48.368Z,99.74
2022-11-05T08:04:48.345Z,99.33
2022-11-05T08:05:48.315Z,99.13
2022-11-05T08:06:48.298Z,99.64
2022-11-05T08:07:48.312Z,99.99
2022-11-05T08:08:48.329Z,99.99
2022-11-05T08:09:48.233Z,99.99
2022-11-05T08:10:48.925Z,99.99
2022-11-05T08:11:50.348Z,99.99
2022-11-05T08:12:48.218Z,99.99
2022-11-05T08:13:48.452Z,99.90
2022-11-05T08:14:48.216Z,99.24
2022-11-05T08:15:48.186Z,99.55
2022-11-05T08:16:48.167Z,99.24
2022-11-05T08:17:48.159Z,99.34
2022-11-05T08:18:48.158Z,99.76
2022-11-05T08:19:48.154Z,99.99
2022-11-05T08:20:48.400Z,99.99
2022-11-05T08:21:48.102Z,99.99
2022-11-05T08:22:48.202Z,99.99
2022-11-05T08:23:48.846Z,99.99
2022-11-05T08:24:48.436Z,99.99
2022-11-05T08:25:48.069Z,99.99
2022-11-05T08:26:48.083Z,99.99
2022-11-05T08:27:48.182Z,99.99
2022-11-05T08:28:48.043Z,99.99
2022-11-05T08:29:48.013Z,99.99
2022-11-05T08:30:48.002Z,99.99
2022-11-05T08:31:48.024Z,99.99
2022-11-05T08:32:47.983Z,99.99
2022-11-05T08:33:48.030Z,99.99
2022-11-05T08:34:47.993Z,99.99
2022-11-05T08:35:47.968Z,99.99
2022-11-05T08:36:48.774Z,99.99
2022-11-05T08:37:47.915Z,99.99
2022-11-05T08:38:47.915Z,99.99
2022-11-05T08:39:47.905Z,99.99
2022-11-05T08:40:47.949Z,99.99
2022-11-05T08:41:47.875Z,99.99
2022-11-05T08:42:47.875Z,99.99
2022-11-05T08:43:47.846Z,99.99
2022-11-05T08:44:48.295Z,99.99
2022-11-05T08:45:47.886Z,99.99
2022-11-05T08:46:47.895Z,99.99
2022-11-05T08:47:47.829Z,99.99
2022-11-05T08:48:47.882Z,99.99
2022-11-05T08:49:47.819Z,99.99
2022-11-05T08:50:47.810Z,99.99
2022-11-05T08:51:47.797Z,99.99
2022-11-05T08:52:47.802Z,99.99
2022-11-05T08:53:47.758Z,99.99
2022-11-05T08:54:47.774Z,99.99
2022-11-05T08:55:47.877Z,99.99
2022-11-05T08:56:47.754Z,99.99
2022-11-05T08:57:47.760Z,99.99
2022-11-05T08:58:47.753Z,99.99
2022-11-05T08:59:47.702Z,99.99
2022-11-05T09:00:47.854Z,99.99
2022-11-05T09:01:48.028Z,99.99
2022-11-05T09:02:47.696Z,99.99
2022-11-05T09:03:47.663Z,99.99
2022-11-05T09:04:47.671Z,99.60
2022-11-05T09:05:47.695Z,99.91
2022-11-05T09:06:47.622Z,99.99
2022-11-05T09:07:47.620Z,99.99
2022-11-05T09:08:47.604Z,99.99
2022-11-05T09:09:47.593Z,99.99
2022-11-05T09:10:47.586Z,99.99
2022-11-05T09:12:11.122Z,99.99
2022-11-05T09:12:48.564Z,99.99
2022-11-05T09:13:47.542Z,99.99
2022-11-05T09:14:47.539Z,99.99
2022-11-05T09:15:47.538Z,99.77
2022-11-05T09:16:47.525Z,99.87
2022-11-05T09:17:47.506Z,99.72
2022-11-05T09:18:47.495Z,99.41
2022-11-05T09:19:47.497Z,98.59
2022-11-05T09:20:47.479Z,98.79
2022-11-05T09:21:47.467Z,99.82
2022-11-05T09:22:47.455Z,99.21
2022-11-05T09:23:47.443Z,99.31
2022-11-05T09:24:47.442Z,98.79
2022-11-05T09:25:47.416Z,99.21
2022-11-05T09:26:47.430Z,99.72
2022-11-05T09:27:47.426Z,98.90
2022-11-05T09:28:47.390Z,99.51
2022-11-05T09:29:47.427Z,98.38
2022-11-05T09:30:47.387Z,99.41
2022-11-05T09:31:47.362Z,99.51
2022-11-05T09:32:47.357Z,98.90
2022-11-05T09:33:47.340Z,99.41
2022-11-05T09:34:47.331Z,99.82
2022-11-05T09:35:47.322Z,99.77
2022-11-05T09:36:47.325Z,99.88
2022-11-05T09:37:47.310Z,99.99
2022-11-05T09:38:48.081Z,99.57
2022-11-05T09:39:47.280Z,98.96
2022-11-05T09:40:47.290Z,99.26
2022-11-05T09:41:47.252Z,98.85
2022-11-05T09:42:47.261Z,98.85
2022-11-05T09:43:47.246Z,99.67
2022-11-05T09:44:47.230Z,99.37
2022-11-05T09:45:47.213Z,98.79
2022-11-05T09:46:47.202Z,99.16
2022-11-05T09:47:47.193Z,99.10
2022-11-05T09:48:47.194Z,98.38
2022-11-05T09:49:47.173Z,99.00
2022-11-05T09:50:47.214Z,99.51
2022-11-05T09:51:47.156Z,99.47
2022-11-05T09:52:47.143Z,98.75
2022-11-05T09:53:47.134Z,98.24
2022-11-05T09:54:47.132Z,98.69
2022-11-05T09:55:47.116Z,99.26
2022-11-05T09:56:47.921Z,99.37
2022-11-05T09:57:47.089Z,99.47
2022-11-05T09:58:47.093Z,98.96
2022-11-05T09:59:47.085Z,98.13
2022-11-05T10:00:47.089Z,98.33
2022-11-05T10:01:47.200Z,99.11
2022-11-05T10:02:47.046Z,99.21
2022-11-05T10:03:47.026Z,98.08
2022-11-05T10:04:47.024Z,98.19
2022-11-05T10:05:47.106Z,97.99
2022-11-05T10:06:47.037Z,96.80
2022-11-05T10:07:46.994Z,97.20
2022-11-05T10:08:46.980Z,97.92
2022-11-05T10:09:46.972Z,98.24
2022-11-05T10:10:46.968Z,98.91
2022-11-05T10:11:46.959Z,99.42
2022-11-05T10:12:47.758Z,99.63
2022-11-05T10:13:46.929Z,99.11
2022-11-05T10:14:46.920Z,98.50
2022-11-05T10:15:46.920Z,98.66
2022-11-05T10:16:46.911Z,99.38
2022-11-05T10:17:46.887Z,99.79
2022-11-05T10:18:47.011Z,97.67
2022-11-05T10:19:46.892Z,98.39
2022-11-05T10:20:46.859Z,99.17
2022-11-05T10:22:49.652Z,98.19
2022-11-05T10:23:46.834Z,98.91
2022-11-05T10:24:46.929Z,99.01
2022-11-05T10:25:46.805Z,98.29
2022-11-05T10:26:46.796Z,97.92
2022-11-05T10:27:46.783Z,98.13
2022-11-05T10:28:46.875Z,98.59
2022-11-05T10:29:46.761Z,98.59
2022-11-05T10:30:46.752Z,99.31
2022-11-05T10:31:46.743Z,99.82
2022-11-05T10:32:46.734Z,99.99
2022-11-05T10:33:46.716Z,99.97
2022-11-05T10:34:46.716Z,99.99
2022-11-05T10:35:46.695Z,99.99
2022-11-05T10:36:46.696Z,99.99
2022-11-05T10:37:46.680Z,99.99
2022-11-05T10:38:46.679Z,99.99
2022-11-05T10:39:46.655Z,99.99
2022-11-05T10:40:46.658Z,99.40
2022-11-05T10:41:46.636Z,98.58
2022-11-05T10:42:46.631Z,98.88
2022-11-05T10:43:46.626Z,99.91
2022-11-05T10:44:46.605Z,99.99
2022-11-05T10:45:46.598Z,99.99
2022-11-05T10:46:46.579Z,99.99
2022-11-05T10:47:46.586Z,99.99
2022-11-05T10:48:46.649Z,99.99
2022-11-05T10:49:46.559Z,99.99
2022-11-05T10:50:46.545Z,99.99
2022-11-05T10:51:46.542Z,99.99
2022-11-05T10:52:46.516Z,99.99
2022-11-05T10:53:46.520Z,99.99
2022-11-05T10:54:46.491Z,99.99
2022-11-05T10:55:46.496Z,99.99
2022-11-05T10:56:46.488Z,99.99
2022-11-05T10:57:46.489Z,99.99
2022-11-05T10:58:46.451Z,99.91
2022-11-05T10:59:46.470Z,99.71
2022-11-05T11:00:46.583Z,99.60
2022-11-05T11:01:46.640Z,99.99
2022-11-05T11:02:46.436Z,99.99
2022-11-05T11:03:46.414Z,99.99
2022-11-05T11:04:46.393Z,99.99
2022-11-05T11:05:46.393Z,99.99
2022-11-05T11:06:46.381Z,99.99
2022-11-05T11:07:46.373Z,99.99
2022-11-05T11:08:46.363Z,99.99
2022-11-05T11:09:46.385Z,99.99
2022-11-05T11:10:46.344Z,99.99
2022-11-05T11:11:46.336Z,99.37
2022-11-05T11:12:46.325Z,99.16
2022-11-05T11:13:46.328Z,98.75
2022-11-05T11:14:46.305Z,98.96
2022-11-05T11:15:46.296Z,98.85
2022-11-05T11:16:46.274Z,98.54
2022-11-05T11:17:46.526Z,99.37
2022-11-05T11:18:46.256Z,99.26
2022-11-05T11:19:46.246Z,98.33
2022-11-05T11:20:46.235Z,98.80
2022-11-05T11:21:46.227Z,98.50
2022-11-05T11:22:46.305Z,98.91
2022-11-05T11:23:46.420Z,98.29
2022-11-05T11:24:46.197Z,98.39
2022-11-05T11:25:46.187Z,98.39
2022-11-05T11:26:46.168Z,97.88
2022-11-05T11:27:46.161Z,97.20
2022-11-05T11:28:46.558Z,97.82
2022-11-05T11:29:49.389Z,98.54
2022-11-05T11:30:46.129Z,98.85
2022-11-05T11:31:46.121Z,99.05
2022-11-05T11:32:46.289Z,98.75
2022-11-05T11:33:46.118Z,98.75
2022-11-05T11:34:46.100Z,98.03
2022-11-05T11:35:46.081Z,98.24
2022-11-05T11:36:46.071Z,98.65
2022-11-05T11:37:46.807Z,98.85
2022-11-05T11:38:46.041Z,98.54
2022-11-05T11:39:46.053Z,98.19
2022-11-05T11:40:46.027Z,98.50
2022-11-05T11:41:46.021Z,98.39
2022-11-05T11:42:46.014Z,97.99
2022-11-05T11:43:46.001Z,97.83
2022-11-05T11:44:45.992Z,96.60
2022-11-05T11:45:45.981Z,97.83
2022-11-05T11:46:45.963Z,98.04
2022-11-05T11:47:45.968Z,98.04
2022-11-05T11:48:45.944Z,97.69
2022-11-05T11:49:45.936Z,96.87
2022-11-05T11:50:45.926Z,96.04
2022-11-05T11:51:49.972Z,95.64
2022-11-05T11:52:45.892Z,96.77
2022-11-05T11:53:45.898Z,95.43
2022-11-05T11:54:45.877Z,95.23
2022-11-05T11:55:45.874Z,95.12
2022-11-05T11:56:45.854Z,93.68
2022-11-05T11:57:45.856Z,93.93
2022-11-05T11:58:45.830Z,95.27
2022-11-05T12:00:07.857Z,94.76
2022-11-05T12:00:46.827Z,95.68
2022-11-05T12:01:45.866Z,96.09
2022-11-05T12:02:45.868Z,94.96
2022-11-05T12:03:45.789Z,95.06
2022-11-05T12:04:45.767Z,94.04
2022-11-05T12:05:45.768Z,93.21
2022-11-05T12:06:45.755Z,93.87
2022-11-05T12:07:45.744Z,94.39
2022-11-05T12:08:47.002Z,95.47
2022-11-05T12:09:45.730Z,95.89
2022-11-05T12:10:45.720Z,95.93
2022-11-05T12:11:45.710Z,96.03
2022-11-05T12:12:45.698Z,96.19
2022-11-05T12:13:45.695Z,95.21
2022-11-05T12:14:46.799Z,95.62
2022-11-05T12:15:45.673Z,95.52
2022-11-05T12:16:45.676Z,95.10
2022-11-05T12:17:45.652Z,95.62
2022-11-05T12:18:46.482Z,96.85
2022-11-05T12:19:45.643Z,95.27
2022-11-05T12:20:48.263Z,95.78
2022-11-05T12:21:52.889Z,94.96
2022-11-05T12:22:46.584Z,96.30
2022-11-05T12:23:45.597Z,94.92
2022-11-05T12:24:45.563Z,96.04
2022-11-05T12:25:45.575Z,94.81
2022-11-05T12:26:45.534Z,93.17
2022-11-05T12:27:45.546Z,92.46
2022-11-05T12:29:12.095Z,93.59
2022-11-05T12:29:46.527Z,94.34
2022-11-05T12:30:45.504Z,95.74
2022-11-05T12:31:45.495Z,96.40
2022-11-05T12:32:45.563Z,97.12
2022-11-05T12:33:45.497Z,95.57
2022-11-05T12:34:45.475Z,95.68
2022-11-05T12:35:48.848Z,95.06
2022-11-05T12:36:46.437Z,96.23
2022-11-05T12:37:45.430Z,97.57
2022-11-05T12:38:45.417Z,97.57
2022-11-05T12:39:45.523Z,97.99
2022-11-05T12:40:45.387Z,97.57
2022-11-05T12:41:45.398Z,97.41
2022-11-05T12:42:45.378Z,98.03
2022-11-05T12:43:45.387Z,96.80
2022-11-05T12:44:45.349Z,97.87
2022-11-05T12:45:45.348Z,99.41
2022-11-05T12:46:45.348Z,99.82
2022-11-05T12:47:45.337Z,99.99
2022-11-05T12:48:45.319Z,99.99
2022-11-05T12:49:45.410Z,99.99
2022-11-05T12:50:45.290Z,99.47
2022-11-05T12:51:45.294Z,98.96
2022-11-05T12:52:45.270Z,99.05
2022-11-05T12:53:45.281Z,99.16